createdAt,value
2022-10-24T19:48:48.407Z,7.05
2022-10-24T19:51:16.482Z,9.63
2022-10-24T19:53:44.034Z,6.90
2022-10-24T19:56:22.587Z,5.70
2022-10-24T19:58:52.262Z,4.20
2022-10-24T20:01:24.697Z,3.72
2022-10-24T20:03:52.078Z,4.37
2022-10-24T20:06:19.552Z,19.95
2022-10-24T20:08:47.420Z,15.00
2022-10-24T20:11:20.325Z,11.50
2022-10-24T20:13:48.042Z,9.88
2022-10-24T20:16:14.681Z,6.63
2022-10-24T20:18:43.622Z,6.18
2022-10-24T20:21:12.995Z,6.45
2022-10-24T20:23:43.130Z,7.20
2022-10-24T20:26:22.083Z,7.30
2022-10-24T20:28:50.914Z,6.17
2022-10-24T20:31:23.369Z,5.95
2022-10-24T20:33:50.864Z,5.78
2022-10-24T20:36:18.169Z,4.40
2022-10-24T20:38:44.856Z,3.83
2022-10-24T20:41:11.477Z,3.80
2022-10-24T20:43:38.227Z,3.70
2022-10-24T20:46:06.195Z,4.20
2022-10-24T20:48:34.279Z,3.80
2022-10-24T20:51:08.854Z,3.80
2022-10-24T20:53:35.945Z,3.80
2022-10-24T20:56:05.203Z,5.40
2022-10-24T20:58:32.193Z,4.80
2022-10-24T21:00:58.927Z,4.82
2022-10-24T21:03:25.610Z,4.15
2022-10-24T21:05:52.234Z,3.87
2022-10-24T21:08:18.810Z,3.50
2022-10-24T21:10:45.413Z,2.90
2022-10-24T21:13:12.038Z,3.08
2022-10-24T21:15:38.707Z,3.00
2022-10-24T21:18:05.838Z,2.33
2022-10-24T21:20:32.437Z,3.10
2022-10-24T21:22:59.100Z,4.43
2022-10-24T21:25:25.725Z,4.68
2022-10-24T21:27:52.406Z,4.47
2022-10-24T21:30:19.035Z,3.87
2022-10-24T21:32:46.024Z,3.80
2022-10-24T21:35:12.645Z,4.15
2022-10-24T21:37:39.265Z,3.60
2022-10-24T21:40:06.346Z,3.70
2022-10-24T21:42:35.513Z,3.70
2022-10-24T21:45:02.132Z,3.55
2022-10-24T21:47:28.850Z,3.58
2022-10-24T21:49:55.479Z,3.03
2022-10-24T21:52:22.203Z,3.05
2022-10-24T21:54:48.884Z,3.00
2022-10-24T21:57:15.602Z,3.35
2022-10-24T21:59:42.244Z,3.20
2022-10-24T22:02:09.366Z,3.42
2022-10-24T22:04:36.235Z,3.83
2022-10-24T22:07:03.056Z,3.50
2022-10-24T22:09:29.899Z,3.50
2022-10-24T22:11:57.929Z,4.03
2022-10-24T22:14:25.211Z,7.28
2022-10-24T22:16:52.217Z,8.25
2022-10-24T22:19:19.280Z,6.47
2022-10-24T22:21:48.659Z,5.57
2022-10-24T22:24:18.803Z,5.63
2022-10-24T22:26:45.925Z,5.40
2022-10-24T22:29:18.122Z,5.60
2022-10-24T22:31:45.222Z,5.30
2022-10-24T22:34:17.102Z,5.30
2022-10-24T22:37:19.302Z,5.20
2022-10-24T22:39:46.256Z,5.28
2022-10-24T22:42:19.129Z,5.35
2022-10-24T22:44:47.279Z,5.40
2022-10-24T22:47:35.233Z,4.80
2022-10-24T22:50:28.277Z,4.53
2022-10-24T22:52:55.125Z,6.97
2022-10-24T22:55:45.517Z,5.80
2022-10-24T22:58:12.549Z,5.07
2022-10-24T23:00:39.345Z,4.70
2022-10-24T23:03:21.067Z,4.55
2022-10-24T23:05:54.464Z,4.63
2022-10-24T23:08:40.146Z,5.60
2022-10-24T23:11:09.338Z,4.40
2022-10-24T23:13:36.327Z,4.80
2022-10-24T23:16:19.730Z,4.40
2022-10-24T23:18:46.695Z,4.45
2022-10-24T23:21:31.532Z,4.30
2022-10-24T23:23:58.413Z,4.87
2022-10-24T23:26:30.479Z,5.18
2022-10-24T23:29:10.101Z,5.60
2022-10-24T23:31:36.955Z,4.40
2022-10-24T23:34:04.016Z,4.05
2022-10-24T23:36:30.920Z,4.23
2022-10-24T23:38:57.845Z,4.50
2022-10-24T23:41:24.723Z,4.57
2022-10-24T23:43:51.673Z,9.85
2022-10-24T23:47:03.459Z,7.13
2022-10-24T23:49:34.553Z,4.80
2022-10-24T23:52:32.026Z,4.88
2022-10-24T23:54:58.894Z,5.00
2022-10-24T23:57:25.756Z,4.80
2022-10-24T23:59:52.392Z,5.00
